createdAt,value
2022-12-23T00:01:01.104Z,7.78
2022-12-23T00:06:07.984Z,7.76
2022-12-23T00:11:15.254Z,7.58
2022-12-23T00:16:16.137Z,7.61
2022-12-23T00:21:17.455Z,7.61
2022-12-23T00:26:24.188Z,7.58
2022-12-23T00:31:25.020Z,7.61
2022-12-23T00:36:28.404Z,7.63
2022-12-23T00:41:47.951Z,7.60
2022-12-23T00:46:49.475Z,7.60
2022-12-23T00:51:50.678Z,7.56
2022-12-23T00:56:51.451Z,7.57
2022-12-23T01:02:11.825Z,7.48
2022-12-23T01:07:12.976Z,7.53
2022-12-23T01:12:13.946Z,7.58
2022-12-23T01:17:14.814Z,7.54
2022-12-23T01:22:15.738Z,7.54
2022-12-23T01:27:16.513Z,7.42
2022-12-23T01:32:17.404Z,7.35
2022-12-23T01:37:18.638Z,7.39
2022-12-23T01:42:38.602Z,7.40
2022-12-23T01:48:26.680Z,7.45
2022-12-23T01:53:30.815Z,7.47
2022-12-23T01:58:37.300Z,7.42
2022-12-23T02:03:41.738Z,7.42
2022-12-23T02:09:01.391Z,7.46
2022-12-23T02:15:02.802Z,7.54
2022-12-23T02:20:35.604Z,7.46
2022-12-23T02:28:29.674Z,7.43
2022-12-23T02:34:00.852Z,7.49
2022-12-23T02:39:08.530Z,7.50
2022-12-23T02:44:22.635Z,7.40
2022-12-23T02:49:30.261Z,7.51
2022-12-23T02:54:38.075Z,7.46
2022-12-23T02:59:44.564Z,7.40
2022-12-23T03:04:45.338Z,7.35
2022-12-23T03:10:05.772Z,7.36
2022-12-23T03:15:16.905Z,7.38
2022-12-23T03:20:32.789Z,7.24
2022-12-23T03:25:42.250Z,7.41
2022-12-23T03:30:50.596Z,7.43
2022-12-23T03:35:57.267Z,7.29
2022-12-23T03:41:06.289Z,7.40
2022-12-23T03:46:17.242Z,7.38
2022-12-23T03:51:22.947Z,7.48
2022-12-23T03:56:30.161Z,7.54
2022-12-23T04:03:10.126Z,7.54
2022-12-23T04:08:19.276Z,7.47
2022-12-23T04:13:20.199Z,7.61
2022-12-23T04:18:21.455Z,7.43
2022-12-23T04:23:22.206Z,7.34
2022-12-23T04:28:23.059Z,7.34
2022-12-23T04:33:23.803Z,7.49
2022-12-23T04:38:24.677Z,7.48
2022-12-23T04:43:25.554Z,7.48
2022-12-23T04:48:26.349Z,7.55
2022-12-23T04:53:27.081Z,7.61
2022-12-23T04:58:27.863Z,7.70
2022-12-23T05:03:28.857Z,7.80
2022-12-23T05:08:30.433Z,7.66
2022-12-23T05:13:31.238Z,7.71
2022-12-23T05:18:32.112Z,7.74
2022-12-23T05:23:32.888Z,7.76
2022-12-23T05:28:33.676Z,7.91
2022-12-23T05:33:34.900Z,7.92
2022-12-23T05:38:36.309Z,7.98
2022-12-23T05:43:37.153Z,8.01
2022-12-23T05:48:37.935Z,8.05
2022-12-23T05:53:38.669Z,7.96
2022-12-23T05:58:39.419Z,8.06
2022-12-23T06:03:40.374Z,8.05
2022-12-23T06:08:41.294Z,8.00
2022-12-23T06:13:42.126Z,8.09
2022-12-23T06:18:42.980Z,8.08
2022-12-23T06:23:43.709Z,8.15
2022-12-23T06:28:44.460Z,8.19
2022-12-23T06:33:45.248Z,8.12
2022-12-23T06:38:46.006Z,8.20
2022-12-23T06:43:49.938Z,8.29
2022-12-23T06:48:54.818Z,8.21
2022-12-23T06:53:55.765Z,8.25
2022-12-23T06:58:56.579Z,8.28
2022-12-23T07:03:57.311Z,8.22
2022-12-23T07:08:58.079Z,8.17
2022-12-23T07:13:59.692Z,8.15
2022-12-23T07:19:00.815Z,8.13
2022-12-23T07:24:02.712Z,8.13
2022-12-23T07:29:04.398Z,8.18
2022-12-23T07:34:05.306Z,8.10
2022-12-23T07:39:06.071Z,8.20
2022-12-23T07:44:08.110Z,8.18
2022-12-23T07:49:09.201Z,8.19
2022-12-23T07:54:12.882Z,8.20
2022-12-23T07:59:13.859Z,8.20
2022-12-23T08:04:14.674Z,8.18
2022-12-23T08:09:15.436Z,8.23
2022-12-23T08:14:16.302Z,8.21
2022-12-23T08:19:17.030Z,8.20
2022-12-23T08:24:17.948Z,8.19
2022-12-23T08:29:18.662Z,8.20
2022-12-23T08:34:19.457Z,8.22
2022-12-23T08:39:20.251Z,8.23
2022-12-23T08:44:22.088Z,8.23
2022-12-23T08:49:22.906Z,8.26
2022-12-23T08:54:24.439Z,8.34
2022-12-23T08:59:25.190Z,8.31
2022-12-23T09:04:26.052Z,8.25
2022-12-23T09:09:26.825Z,8.24
2022-12-23T09:14:28.238Z,8.38
2022-12-23T09:19:28.965Z,8.51
2022-12-23T09:24:30.946Z,8.35
2022-12-23T09:29:31.721Z,8.36
2022-12-23T09:34:32.697Z,8.52
2022-12-23T09:39:33.762Z,8.50
2022-12-23T09:45:11.115Z,8.59
2022-12-23T09:50:33.984Z,8.61
2022-12-23T09:59:02.196Z,8.62
2022-12-23T10:06:40.668Z,8.50
2022-12-23T10:11:45.471Z,8.37
2022-12-23T10:16:51.975Z,8.36
2022-12-23T10:22:11.140Z,8.31
2022-12-23T10:27:40.167Z,8.25
2022-12-23T10:33:01.567Z,8.16
2022-12-23T10:43:26.670Z,8.07
2022-12-23T10:49:07.125Z,8.13
2022-12-23T10:54:22.348Z,8.13
2022-12-23T10:59:26.691Z,8.21
2022-12-23T11:04:35.011Z,8.33
2022-12-23T11:09:47.190Z,8.33
2022-12-23T11:14:56.953Z,8.31
2022-12-23T11:20:19.542Z,8.45
2022-12-23T11:26:21.287Z,8.30
2022-12-23T11:31:28.246Z,8.38
2022-12-23T11:36:30.377Z,8.30
2022-12-23T11:42:11.472Z,8.24
2022-12-23T11:47:32.252Z,8.32
2022-12-23T11:52:33.239Z,8.20
2022-12-23T11:57:45.762Z,8.12
2022-12-23T12:02:51.669Z,8.22
2022-12-23T12:07:59.536Z,8.15
2022-12-23T12:13:25.284Z,8.07
2022-12-23T12:18:27.161Z,8.25
2022-12-23T12:23:39.586Z,8.26
2022-12-23T12:28:43.825Z,8.34
2022-12-23T12:34:04.351Z,8.42
2022-12-23T12:39:15.378Z,8.43
2022-12-23T12:46:03.456Z,8.43
2022-12-23T12:51:56.343Z,8.45
2022-12-23T12:56:58.618Z,8.41
2022-12-23T13:05:28.482Z,8.35
2022-12-23T13:11:02.921Z,8.23
2022-12-23T13:17:17.729Z,8.25
2022-12-23T13:22:31.737Z,8.22
2022-12-23T13:27:56.279Z,8.36
2022-12-23T13:34:57.403Z,8.43
2022-12-23T13:40:35.794Z,8.34
2022-12-23T13:45:39.838Z,8.28
2022-12-23T13:51:03.653Z,8.42
2022-12-23T13:56:41.693Z,8.47
2022-12-23T14:01:46.420Z,8.42
2022-12-23T14:06:47.423Z,8.50
2022-12-23T14:11:51.433Z,8.49
2022-12-23T14:17:02.710Z,8.66
2022-12-23T14:22:34.991Z,8.45
2022-12-23T14:32:05.454Z,8.51
2022-12-23T14:43:56.533Z,8.49
2022-12-23T14:49:38.885Z,8.68
2022-12-23T14:54:55.127Z,8.75
2022-12-23T15:00:09.475Z,8.92
2022-12-23T15:05:10.638Z,8.99
2022-12-23T15:10:17.948Z,8.93
2022-12-23T15:15:30.028Z,8.75
2022-12-23T15:20:31.147Z,8.85
2022-12-23T15:25:34.455Z,8.81
2022-12-23T15:30:48.585Z,9.22
2022-12-23T15:35:49.964Z,9.76
2022-12-23T15:41:00.894Z,10.20
2022-12-23T15:46:26.820Z,10.43
2022-12-23T15:52:07.085Z,10.46
2022-12-23T15:57:17.102Z,10.53
2022-12-23T16:08:29.815Z,10.66
2022-12-23T16:13:32.452Z,10.59
2022-12-23T16:18:46.911Z,10.61
2022-12-23T16:23:51.471Z,10.64
2022-12-23T16:28:57.300Z,10.61
2022-12-23T16:34:00.442Z,10.54
2022-12-23T16:39:21.168Z,10.45
2022-12-23T16:44:22.076Z,10.17
2022-12-23T16:49:31.237Z,10.03
2022-12-23T16:54:34.220Z,9.94
2022-12-23T16:59:35.047Z,9.83
2022-12-23T17:04:35.823Z,9.78
2022-12-23T17:09:36.634Z,9.77
2022-12-23T17:14:37.992Z,9.84
2022-12-23T17:19:38.809Z,9.90
2022-12-23T17:24:39.580Z,9.91
2022-12-23T17:29:40.370Z,10.04
2022-12-23T17:34:41.158Z,10.09
2022-12-23T17:39:43.798Z,10.15
2022-12-23T17:44:44.681Z,10.10
2022-12-23T17:49:46.670Z,10.08
2022-12-23T17:54:49.258Z,9.93
2022-12-23T17:59:52.075Z,9.92
2022-12-23T18:04:53.505Z,10.01
2022-12-23T18:09:54.269Z,9.88
2022-12-23T18:14:56.045Z,9.86
2022-12-23T18:19:57.525Z,9.76
2022-12-23T18:24:59.574Z,9.77
2022-12-23T18:30:00.879Z,9.64
2022-12-23T18:35:01.805Z,9.69
2022-12-23T18:40:04.529Z,9.60
2022-12-23T18:45:22.376Z,9.59
2022-12-23T18:50:23.326Z,9.74
2022-12-23T18:55:24.734Z,9.71
2022-12-23T19:00:29.135Z,9.67
2022-12-23T19:05:33.802Z,9.54
2022-12-23T19:10:34.541Z,9.60
2022-12-23T19:15:35.714Z,9.67
2022-12-23T19:20:36.637Z,9.65
2022-12-23T19:25:41.810Z,9.77
2022-12-23T19:30:42.726Z,9.65
2022-12-23T19:35:44.011Z,9.73
2022-12-23T19:40:44.736Z,9.64
2022-12-23T19:45:56.106Z,9.65
2022-12-23T19:50:58.358Z,9.55
2022-12-23T19:56:14.922Z,9.53
2022-12-23T20:01:21.967Z,9.53
2022-12-23T20:06:34.271Z,9.54
2022-12-23T20:11:37.651Z,9.54
2022-12-23T20:16:40.297Z,9.49
2022-12-23T20:21:41.082Z,9.42
2022-12-23T20:26:41.897Z,9.37
2022-12-23T20:31:42.717Z,9.42
2022-12-23T20:36:43.692Z,9.30
2022-12-23T20:41:44.569Z,9.34
2022-12-23T20:46:45.542Z,9.33
2022-12-23T20:51:46.407Z,9.29
2022-12-23T20:56:47.375Z,9.28
2022-12-23T21:01:48.194Z,9.30
2022-12-23T21:06:49.295Z,9.33
2022-12-23T21:11:50.023Z,9.37
2022-12-23T21:16:51.249Z,9.39
2022-12-23T21:21:52.940Z,9.37
2022-12-23T21:26:56.866Z,9.33
2022-12-23T21:31:59.731Z,9.37
2022-12-23T21:37:00.586Z,9.32
2022-12-23T21:42:01.361Z,9.34
2022-12-23T21:47:02.403Z,9.31
2022-12-23T21:52:03.508Z,9.28
2022-12-23T21:57:04.316Z,9.25
2022-12-23T22:02:05.350Z,9.21
2022-12-23T22:07:06.137Z,9.29
2022-12-23T22:12:06.891Z,9.24
2022-12-23T22:17:07.788Z,9.24
2022-12-23T22:22:08.555Z,9.23
2022-12-23T22:27:09.366Z,9.27
2022-12-23T22:32:10.148Z,9.20
2022-12-23T22:37:11.068Z,9.19
2022-12-23T22:42:11.802Z,9.21
2022-12-23T22:47:12.761Z,9.18
2022-12-23T22:52:13.764Z,9.12
2022-12-23T22:57:14.565Z,9.02
2022-12-23T23:02:15.552Z,9.01
2022-12-23T23:07:16.873Z,8.93
2022-12-23T23:12:17.617Z,8.90
2022-12-23T23:17:20.956Z,8.86
2022-12-23T23:22:22.649Z,8.78
2022-12-23T23:27:23.496Z,8.77
2022-12-23T23:32:24.318Z,8.75
2022-12-23T23:37:25.172Z,8.73
2022-12-23T23:42:25.897Z,8.69
2022-12-23T23:47:26.811Z,8.70
2022-12-23T23:52:28.230Z,8.60
2022-12-23T23:57:29.137Z,8.55
